createdAt,value
2022-11-20T00:01:40.143Z,17.50
2022-11-20T00:04:25.303Z,16.83
2022-11-20T00:07:10.000Z,16.37
2022-11-20T00:09:54.978Z,18.00
2022-11-20T00:12:39.947Z,19.00
2022-11-20T00:15:25.394Z,17.27
2022-11-20T00:18:10.678Z,15.88
2022-11-20T00:21:02.116Z,17.17
2022-11-20T00:23:47.818Z,21.23
2022-11-20T00:26:33.083Z,16.70
2022-11-20T00:29:18.514Z,16.02
2022-11-20T00:32:03.838Z,15.98
2022-11-20T00:34:48.963Z,17.63
2022-11-20T00:37:34.135Z,15.38
2022-11-20T00:40:18.923Z,19.15
2022-11-20T00:43:04.062Z,17.27
2022-11-20T00:45:49.260Z,19.02
2022-11-20T00:48:34.368Z,17.97
2022-11-20T00:51:21.990Z,15.27
2022-11-20T00:54:06.902Z,19.17
2022-11-20T00:56:54.418Z,19.20
2022-11-20T00:59:39.195Z,16.63
2022-11-20T01:02:24.154Z,15.93
2022-11-20T01:05:08.990Z,18.83
2022-11-20T01:07:54.143Z,18.90
2022-11-20T01:10:39.197Z,19.75
2022-11-20T01:13:39.886Z,17.63
2022-11-20T01:16:27.096Z,17.83
2022-11-20T01:19:17.736Z,17.65
2022-11-20T01:22:03.109Z,18.08
2022-11-20T01:24:48.132Z,17.75
2022-11-20T01:27:33.208Z,18.75
2022-11-20T01:30:18.184Z,19.17
2022-11-20T01:33:03.236Z,16.85
2022-11-20T01:35:48.588Z,17.70
2022-11-20T01:38:33.575Z,15.32
2022-11-20T01:41:44.671Z,17.02
2022-11-20T01:44:53.427Z,17.87
2022-11-20T01:47:44.914Z,15.70
2022-11-20T01:50:30.292Z,17.48
2022-11-20T01:53:19.598Z,15.70
2022-11-20T01:56:08.368Z,12.60
2022-11-20T01:58:57.495Z,15.03
2022-11-20T02:01:42.331Z,17.35
2022-11-20T02:04:27.353Z,14.00
2022-11-20T02:07:12.621Z,14.13
2022-11-20T02:09:58.917Z,16.08
2022-11-20T02:13:02.917Z,17.27
2022-11-20T02:15:48.507Z,20.63
2022-11-20T02:18:34.210Z,15.73
2022-11-20T02:21:31.013Z,16.05
2022-11-20T02:24:20.214Z,14.75
2022-11-20T02:27:10.868Z,17.00
2022-11-20T02:30:03.083Z,19.27
2022-11-20T02:32:48.038Z,16.73
2022-11-20T02:35:33.097Z,17.55
2022-11-20T02:38:18.801Z,16.23
2022-11-20T02:41:03.730Z,17.93
2022-11-20T02:43:48.766Z,17.42
2022-11-20T02:46:34.178Z,15.73
2022-11-20T02:49:19.970Z,15.85
2022-11-20T02:52:05.180Z,14.10
2022-11-20T02:54:50.253Z,19.63
2022-11-20T02:57:35.533Z,17.98
2022-11-20T03:00:20.615Z,16.13
2022-11-20T03:03:05.737Z,15.50
2022-11-20T03:05:50.856Z,17.52
2022-11-20T03:08:36.328Z,15.57
2022-11-20T03:11:21.492Z,17.60
2022-11-20T03:14:06.626Z,15.30
2022-11-20T03:16:51.802Z,15.63
2022-11-20T03:19:36.826Z,17.75
2022-11-20T03:22:21.922Z,16.20
2022-11-20T03:25:07.138Z,19.92
2022-11-20T03:27:52.036Z,15.80
2022-11-20T03:30:37.289Z,15.65
2022-11-20T03:33:22.390Z,18.67
2022-11-20T03:36:10.272Z,16.30
2022-11-20T03:38:56.836Z,16.30
2022-11-20T03:41:43.125Z,18.48
2022-11-20T03:44:27.868Z,16.90
2022-11-20T03:47:12.668Z,17.73
2022-11-20T03:49:57.767Z,18.37
2022-11-20T03:52:43.168Z,17.27
2022-11-20T03:55:28.022Z,17.00
2022-11-20T03:58:14.314Z,21.17
2022-11-20T04:01:05.444Z,17.15
2022-11-20T04:03:52.350Z,18.40
2022-11-20T04:06:38.870Z,15.77
2022-11-20T04:09:23.920Z,16.83
2022-11-20T04:12:08.994Z,18.83
2022-11-20T04:14:54.290Z,18.75
2022-11-20T04:17:39.262Z,15.93
2022-11-20T04:20:24.449Z,18.27
2022-11-20T04:23:09.283Z,19.40
2022-11-20T04:25:54.554Z,19.13
2022-11-20T04:28:40.381Z,20.75
2022-11-20T04:31:28.264Z,18.23
2022-11-20T04:34:13.522Z,23.30
2022-11-20T04:36:58.661Z,17.20
2022-11-20T04:39:44.500Z,18.33
2022-11-20T04:42:29.337Z,19.77
2022-11-20T04:45:14.351Z,18.87
2022-11-20T04:47:59.310Z,16.35
2022-11-20T04:50:44.345Z,19.25
2022-11-20T04:53:29.374Z,19.73
2022-11-20T04:56:14.788Z,17.38
2022-11-20T04:59:02.839Z,14.40
2022-11-20T05:01:47.950Z,15.82
2022-11-20T05:04:32.948Z,17.75
2022-11-20T05:07:18.112Z,18.40
2022-11-20T05:10:02.766Z,18.13
2022-11-20T05:12:47.769Z,19.93
2022-11-20T05:15:33.168Z,19.70
2022-11-20T05:18:18.007Z,19.55
2022-11-20T05:21:04.204Z,17.20
2022-11-20T05:23:49.531Z,18.13
2022-11-20T05:26:34.443Z,17.87
2022-11-20T05:29:19.483Z,20.58
2022-11-20T05:32:06.704Z,17.52
2022-11-20T05:34:52.207Z,20.75
2022-11-20T05:37:37.025Z,20.55
2022-11-20T05:40:22.201Z,20.27
2022-11-20T05:43:06.970Z,24.10
2022-11-20T05:45:55.105Z,19.70
2022-11-20T05:48:42.334Z,20.27
2022-11-20T05:51:28.315Z,17.13
2022-11-20T05:54:13.152Z,18.00
2022-11-20T05:56:58.261Z,21.17
2022-11-20T05:59:43.296Z,17.00
2022-11-20T06:02:28.497Z,18.85
2022-11-20T06:05:13.242Z,19.65
2022-11-20T06:07:58.342Z,23.03
2022-11-20T06:10:44.314Z,19.30
2022-11-20T06:13:29.343Z,20.10
2022-11-20T06:16:16.777Z,18.65
2022-11-20T06:19:01.858Z,19.95
2022-11-20T06:21:48.757Z,23.03
2022-11-20T06:24:33.926Z,21.35
2022-11-20T06:27:18.692Z,21.38
2022-11-20T06:30:04.904Z,21.90
2022-11-20T06:32:49.910Z,19.95
2022-11-20T06:35:34.923Z,18.90
2022-11-20T06:38:19.820Z,20.65
2022-11-20T06:41:11.121Z,22.55
2022-11-20T06:43:56.220Z,20.63
2022-11-20T06:46:41.151Z,24.42
2022-11-20T06:49:26.757Z,18.33
2022-11-20T06:52:11.705Z,20.33
2022-11-20T06:54:56.732Z,21.65
2022-11-20T06:57:41.771Z,20.35
2022-11-20T07:00:26.780Z,23.23
2022-11-20T07:03:12.617Z,20.93
2022-11-20T07:06:00.658Z,24.88
2022-11-20T07:08:45.670Z,21.95
2022-11-20T07:11:30.831Z,19.08
2022-11-20T07:14:15.573Z,22.05
2022-11-20T07:17:00.666Z,21.23
2022-11-20T07:19:45.731Z,21.15
2022-11-20T07:22:30.793Z,22.38
2022-11-20T07:25:15.728Z,23.38
2022-11-20T07:28:01.676Z,19.38
2022-11-20T07:30:53.699Z,21.57
2022-11-20T07:33:38.754Z,23.30
2022-11-20T07:36:23.831Z,23.05
2022-11-20T07:39:08.737Z,20.15
2022-11-20T07:41:53.847Z,21.33
2022-11-20T07:44:39.353Z,25.90
2022-11-20T07:47:24.196Z,23.00
2022-11-20T07:50:09.273Z,19.27
2022-11-20T07:53:01.516Z,25.02
2022-11-20T07:55:46.850Z,21.95
2022-11-20T07:58:33.864Z,23.33
2022-11-20T08:01:19.175Z,22.23
2022-11-20T08:04:04.493Z,26.75
2022-11-20T08:06:49.385Z,23.85
2022-11-20T08:09:34.558Z,20.73
2022-11-20T08:12:39.667Z,22.80
2022-11-20T08:15:24.666Z,23.83
2022-11-20T08:21:17.618Z,27.02
2022-11-20T08:24:02.870Z,20.38
2022-11-20T08:26:47.965Z,20.57
2022-11-20T08:29:33.048Z,21.75
2022-11-20T08:32:17.790Z,23.52
2022-11-20T08:35:02.962Z,20.92
2022-11-20T08:37:48.785Z,23.55
2022-11-20T08:40:34.530Z,21.07
2022-11-20T08:43:19.623Z,24.35
2022-11-20T08:46:04.810Z,23.30
2022-11-20T08:48:50.115Z,21.52
2022-11-20T08:51:35.652Z,24.73
2022-11-20T08:54:22.724Z,23.57
2022-11-20T08:57:07.465Z,27.35
2022-11-20T09:00:06.095Z,22.50
2022-11-20T09:02:53.113Z,24.27
2022-11-20T09:05:37.917Z,28.60
2022-11-20T09:08:23.044Z,24.17
2022-11-20T09:11:08.808Z,24.20
2022-11-20T09:13:53.895Z,23.42
2022-11-20T09:16:38.985Z,21.85
2022-11-20T09:19:40.919Z,23.92
2022-11-20T09:22:25.835Z,19.47
2022-11-20T09:25:10.900Z,21.75
2022-11-20T09:27:59.939Z,24.33
2022-11-20T09:30:45.506Z,18.08
2022-11-20T09:33:30.649Z,17.58
2022-11-20T09:36:16.811Z,24.03
2022-11-20T09:39:01.748Z,21.20
2022-11-20T09:42:03.651Z,22.90
2022-11-20T09:44:58.740Z,21.75
2022-11-20T09:48:10.970Z,15.48
2022-11-20T09:51:07.821Z,20.03
2022-11-20T09:54:07.097Z,23.20
2022-11-20T09:57:00.470Z,21.48
2022-11-20T09:59:50.877Z,22.63
2022-11-20T10:02:40.324Z,22.02
2022-11-20T10:05:35.375Z,28.73
2022-11-20T10:08:25.710Z,20.50
2022-11-20T10:11:34.346Z,24.60
2022-11-20T10:14:28.362Z,20.20
2022-11-20T10:17:45.548Z,26.13
2022-11-20T10:21:02.438Z,19.33
2022-11-20T10:23:53.177Z,22.67
2022-11-20T10:27:00.760Z,20.20
2022-11-20T10:30:00.990Z,21.83
2022-11-20T10:32:54.987Z,20.70
2022-11-20T10:35:45.728Z,22.13
2022-11-20T10:38:38.380Z,18.15
2022-11-20T10:41:35.881Z,22.85
2022-11-20T10:44:45.435Z,20.30
2022-11-20T10:47:32.087Z,19.70
2022-11-20T10:50:22.779Z,21.97
2022-11-20T10:53:29.617Z,17.85
2022-11-20T10:56:36.459Z,16.80
2022-11-20T10:59:52.377Z,21.20
2022-11-20T11:02:52.288Z,20.60
2022-11-20T11:05:43.815Z,25.67
2022-11-20T11:08:36.405Z,17.45
2022-11-20T11:11:28.245Z,19.17
2022-11-20T11:14:15.935Z,24.50
2022-11-20T11:17:01.408Z,24.55
2022-11-20T11:19:46.225Z,16.90
2022-11-20T11:22:33.550Z,15.88
2022-11-20T11:25:25.885Z,18.75
2022-11-20T11:28:19.658Z,19.52
2022-11-20T11:31:05.003Z,17.45
2022-11-20T11:33:50.123Z,18.67
2022-11-20T11:36:36.574Z,18.55
2022-11-20T11:39:22.685Z,20.15
2022-11-20T11:42:13.763Z,14.38
2022-11-20T11:45:07.087Z,16.88
2022-11-20T11:47:54.843Z,21.57
2022-11-20T11:50:52.824Z,20.15
2022-11-20T11:53:42.012Z,22.08
2022-11-20T11:56:29.260Z,22.20
2022-11-20T11:59:28.032Z,18.70
2022-11-20T12:02:28.285Z,20.10
2022-11-20T12:05:36.955Z,17.77
2022-11-20T12:08:33.437Z,19.50
2022-11-20T12:11:30.347Z,20.23
2022-11-20T12:14:24.695Z,18.88
2022-11-20T12:17:13.194Z,17.60
2022-11-20T12:19:58.203Z,18.52
2022-11-20T12:23:00.090Z,19.90
2022-11-20T12:25:48.903Z,15.70
2022-11-20T12:28:45.432Z,19.80
2022-11-20T12:32:03.464Z,19.70
2022-11-20T12:35:27.527Z,16.42
2022-11-20T12:38:32.849Z,16.05
2022-11-20T12:41:54.185Z,18.08
2022-11-20T12:45:10.318Z,16.90
2022-11-20T12:48:16.565Z,19.03
2022-11-20T12:51:16.866Z,16.70
2022-11-20T12:54:42.227Z,23.92
2022-11-20T12:57:50.000Z,18.08
2022-11-20T13:00:40.496Z,14.10
2022-11-20T13:03:40.681Z,15.90
2022-11-20T13:06:26.669Z,17.60
2022-11-20T13:09:14.780Z,16.23
2022-11-20T13:12:11.753Z,15.82
2022-11-20T13:15:09.972Z,15.88
2022-11-20T13:17:59.207Z,15.70
2022-11-20T13:20:46.243Z,17.65
2022-11-20T13:23:31.111Z,17.83
2022-11-20T13:26:19.637Z,18.77
2022-11-20T13:29:12.178Z,19.58
2022-11-20T13:32:21.409Z,18.87
2022-11-20T13:35:06.766Z,10.80
2022-11-20T13:38:05.747Z,18.38
2022-11-20T13:40:56.583Z,18.50
2022-11-20T13:43:42.914Z,18.20
2022-11-20T13:46:45.862Z,19.80
2022-11-20T13:49:37.316Z,20.58
2022-11-20T13:52:40.518Z,18.40
2022-11-20T13:56:10.081Z,15.85
2022-11-20T13:59:12.050Z,17.17
2022-11-20T14:02:01.317Z,18.43
2022-11-20T14:04:49.043Z,18.85
2022-11-20T14:07:42.353Z,18.55
2022-11-20T14:10:31.996Z,17.20
2022-11-20T14:13:21.779Z,16.80
2022-11-20T14:16:06.866Z,17.83
2022-11-20T14:18:52.285Z,18.17
2022-11-20T14:21:37.462Z,15.48
2022-11-20T14:24:24.675Z,17.27
2022-11-20T14:27:18.752Z,18.30
2022-11-20T14:30:04.318Z,15.57
2022-11-20T14:32:50.690Z,18.65
2022-11-20T14:35:41.299Z,17.67
2022-11-20T14:38:28.998Z,21.90
2022-11-20T14:41:22.788Z,18.58
2022-11-20T14:44:10.262Z,16.77
2022-11-20T14:46:56.125Z,19.52
2022-11-20T14:49:41.622Z,18.42
2022-11-20T14:52:28.510Z,18.70
2022-11-20T14:55:14.790Z,20.17
2022-11-20T14:58:05.090Z,21.00
2022-11-20T15:00:58.871Z,21.98
2022-11-20T15:03:43.996Z,19.45
2022-11-20T15:06:30.377Z,17.00
2022-11-20T15:09:16.392Z,19.00
2022-11-20T15:12:03.109Z,23.93
2022-11-20T15:14:48.917Z,22.10
2022-11-20T15:17:41.636Z,17.58
2022-11-20T15:20:30.980Z,18.75
2022-11-20T15:23:21.097Z,19.05
2022-11-20T15:26:07.345Z,20.03
2022-11-20T15:28:53.323Z,20.33
2022-11-20T15:31:42.096Z,21.38
2022-11-20T15:34:28.353Z,27.83
2022-11-20T15:37:13.649Z,25.88
2022-11-20T15:39:58.776Z,20.43
2022-11-20T15:43:06.818Z,32.55
2022-11-20T15:46:00.675Z,45.28
2022-11-20T15:48:49.722Z,22.35
2022-11-20T15:51:36.895Z,25.30
2022-11-20T15:54:23.706Z,27.73
2022-11-20T15:57:08.812Z,25.50
2022-11-20T15:59:53.835Z,27.08
2022-11-20T16:02:38.864Z,27.02
2022-11-20T16:05:26.906Z,27.30
2022-11-20T16:08:12.210Z,25.07
2022-11-20T16:10:57.283Z,15.60
2022-11-20T16:14:01.474Z,11.30
2022-11-20T16:16:46.662Z,17.63
2022-11-20T16:19:31.722Z,23.08
2022-11-20T16:22:16.622Z,10.67
2022-11-20T16:25:01.502Z,8.05
2022-11-20T16:27:46.728Z,9.65
2022-11-20T16:30:33.533Z,6.85
2022-11-20T16:33:18.486Z,5.93
2022-11-20T16:36:14.574Z,11.10
2022-11-20T16:39:02.056Z,9.25
2022-11-20T16:41:46.999Z,10.77
2022-11-20T16:44:32.066Z,7.68
2022-11-20T16:47:16.966Z,14.55
2022-11-20T16:50:02.863Z,10.10
2022-11-20T16:52:47.967Z,4.90
2022-11-20T16:55:33.057Z,10.98
2022-11-20T16:58:17.754Z,10.13
2022-11-20T17:01:07.487Z,8.07
2022-11-20T17:04:00.929Z,4.47
2022-11-20T17:06:46.136Z,9.38
2022-11-20T17:09:31.208Z,13.43
2022-11-20T17:12:16.174Z,18.38
2022-11-20T17:15:01.189Z,18.25
2022-11-20T17:17:46.123Z,12.43
2022-11-20T17:20:32.205Z,12.82
2022-11-20T17:23:17.250Z,12.65
2022-11-20T17:26:05.212Z,21.40
2022-11-20T17:29:04.746Z,19.95
2022-11-20T17:31:50.478Z,15.17
2022-11-20T17:34:35.539Z,16.85
2022-11-20T17:37:20.345Z,15.75
2022-11-20T17:40:06.121Z,19.58
2022-11-20T17:42:51.166Z,11.48
2022-11-20T17:45:36.402Z,15.30
2022-11-20T17:48:21.146Z,13.13
2022-11-20T17:51:06.695Z,9.15
2022-11-20T17:53:53.941Z,11.50
2022-11-20T17:56:57.386Z,12.43
2022-11-20T17:59:42.525Z,12.10
2022-11-20T18:02:27.759Z,9.30
2022-11-20T18:05:12.508Z,10.70
2022-11-20T18:07:57.548Z,13.30
2022-11-20T18:10:42.478Z,11.27
2022-11-20T18:13:47.958Z,7.37
2022-11-20T18:16:36.299Z,10.50
2022-11-20T18:19:32.760Z,4.40
2022-11-20T18:22:19.806Z,3.97
2022-11-20T18:25:06.302Z,3.08
2022-11-20T18:27:51.118Z,2.40
2022-11-20T18:30:36.425Z,3.22
2022-11-20T18:33:26.962Z,2.05
2022-11-20T18:36:18.680Z,3.00
2022-11-20T18:39:04.245Z,4.30
2022-11-20T18:42:08.442Z,2.30
2022-11-20T18:44:54.748Z,3.28
2022-11-20T18:47:39.998Z,4.20
2022-11-20T18:50:24.924Z,5.32
2022-11-20T18:53:09.747Z,8.30
2022-11-20T18:55:54.977Z,7.07
2022-11-20T18:58:41.245Z,3.38
2022-11-20T19:01:26.405Z,3.45
2022-11-20T19:04:13.839Z,4.57
2022-11-20T19:06:58.926Z,6.43
2022-11-20T19:09:48.093Z,5.50
2022-11-20T19:12:33.184Z,6.25
2022-11-20T19:15:18.210Z,6.00
2022-11-20T19:18:03.208Z,5.57
2022-11-20T19:20:48.853Z,12.30
2022-11-20T19:23:34.027Z,4.83
2022-11-20T19:26:19.510Z,7.13
2022-11-20T19:29:05.847Z,3.75
2022-11-20T19:31:50.741Z,4.65
2022-11-20T19:34:35.880Z,6.57
2022-11-20T19:37:20.789Z,9.57
2022-11-20T19:40:06.455Z,6.82
2022-11-20T19:42:51.480Z,13.95
2022-11-20T19:45:36.658Z,12.57
2022-11-20T19:48:21.561Z,7.68
2022-11-20T19:51:11.557Z,10.07
2022-11-20T19:53:58.483Z,2.25
2022-11-20T19:56:45.219Z,10.23
2022-11-20T19:59:30.549Z,7.93
2022-11-20T20:02:15.797Z,3.58
2022-11-20T20:05:00.713Z,5.67
2022-11-20T20:07:45.910Z,2.90
2022-11-20T20:10:31.054Z,2.17
2022-11-20T20:13:15.903Z,5.95
2022-11-20T20:16:01.081Z,10.32
2022-11-20T20:18:46.183Z,9.37
2022-11-20T20:21:33.466Z,6.00
2022-11-20T20:24:18.481Z,3.35
2022-11-20T20:27:03.473Z,4.95
2022-11-20T20:29:48.520Z,8.30
2022-11-20T20:32:34.075Z,7.03
2022-11-20T20:35:19.091Z,8.50
2022-11-20T20:38:04.187Z,7.13
2022-11-20T20:40:52.242Z,5.05
2022-11-20T20:43:56.665Z,7.20
2022-11-20T20:46:41.864Z,9.10
2022-11-20T20:49:26.907Z,3.15
2022-11-20T20:52:11.690Z,6.30
2022-11-20T20:54:57.030Z,2.58
2022-11-20T20:57:42.305Z,3.63
2022-11-20T21:00:27.367Z,2.83
2022-11-20T21:03:12.205Z,8.35
2022-11-20T21:05:57.452Z,9.20
2022-11-20T21:08:44.462Z,12.65
2022-11-20T21:11:29.743Z,5.15
2022-11-20T21:14:14.489Z,3.20
2022-11-20T21:16:59.646Z,3.63
2022-11-20T21:19:44.568Z,4.43
2022-11-20T21:22:32.639Z,5.75
2022-11-20T21:25:21.090Z,1.00
2022-11-20T21:28:06.870Z,4.37
2022-11-20T21:30:51.735Z,3.60
2022-11-20T21:33:38.985Z,6.93
2022-11-20T21:36:26.378Z,6.63
2022-11-20T21:39:12.406Z,12.02
2022-11-20T21:41:57.568Z,3.70
2022-11-20T21:44:42.967Z,5.13
2022-11-20T21:47:28.307Z,3.78
2022-11-20T21:50:13.279Z,3.88
2022-11-20T21:52:58.432Z,4.32
2022-11-20T21:55:43.393Z,2.63
2022-11-20T21:58:28.632Z,7.30
2022-11-20T22:01:18.591Z,10.15
2022-11-20T22:04:04.217Z,7.30
2022-11-20T22:06:49.229Z,15.82
2022-11-20T22:09:34.083Z,5.43
2022-11-20T22:12:19.030Z,7.68
2022-11-20T22:15:04.743Z,10.15
2022-11-20T22:18:08.279Z,7.03
2022-11-20T22:20:53.423Z,10.32
2022-11-20T22:23:38.679Z,5.70
2022-11-20T22:26:28.957Z,4.53
2022-11-20T22:29:15.814Z,7.85
2022-11-20T22:32:00.959Z,4.82
2022-11-20T22:34:45.929Z,3.45
2022-11-20T22:37:31.163Z,4.53
2022-11-20T22:40:16.425Z,10.57
2022-11-20T22:43:01.206Z,3.28
2022-11-20T22:45:46.372Z,9.32
2022-11-20T22:48:32.437Z,11.63
2022-11-20T22:51:20.104Z,10.40
2022-11-20T22:54:05.267Z,3.08
2022-11-20T22:56:50.192Z,6.07
2022-11-20T22:59:35.356Z,6.57
2022-11-20T23:02:20.164Z,6.03
2022-11-20T23:05:05.729Z,10.07
2022-11-20T23:07:50.815Z,11.00
2022-11-20T23:10:35.931Z,12.27
2022-11-20T23:13:20.847Z,14.98
2022-11-20T23:16:17.515Z,14.43
2022-11-20T23:19:06.938Z,2.07
2022-11-20T23:21:51.747Z,4.03
2022-11-20T23:24:36.859Z,9.80
2022-11-20T23:27:25.931Z,8.15
2022-11-20T23:30:13.345Z,14.57
2022-11-20T23:32:58.415Z,10.23
2022-11-20T23:35:46.851Z,11.55
2022-11-20T23:38:31.769Z,7.15
2022-11-20T23:41:16.945Z,5.15
2022-11-20T23:44:01.656Z,10.57
2022-11-20T23:46:46.732Z,10.43
2022-11-20T23:49:31.818Z,3.83
2022-11-20T23:52:16.701Z,4.15
2022-11-20T23:55:01.834Z,6.97
2022-11-20T23:57:46.921Z,12.10
